sensor_id;sensor_type;location;lat;lon;timestamp;P1;durP1;ratioP1;P2;durP2;ratioP2
39772;SDS011;25451;51.960;6.250;2023-03-19T00:02:07;3.43;;;1.00;;
39772;SDS011;25451;51.960;6.250;2023-03-19T00:04:33;2.22;;;1.08;;
39772;SDS011;25451;51.960;6.250;2023-03-19T00:06:58;1.90;;;1.00;;
39772;SDS011;25451;51.960;6.250;2023-03-19T00:09:23;3.00;;;1.13;;
39772;SDS011;25451;51.960;6.250;2023-03-19T00:11:49;1.80;;;0.87;;
39772;SDS011;25451;51.960;6.250;2023-03-19T00:14:14;1.33;;;0.80;;
39772;SDS011;25451;51.960;6.250;2023-03-19T00:16:41;1.63;;;0.80;;
39772;SDS011;25451;51.960;6.250;2023-03-19T00:19:06;1.63;;;0.93;;
39772;SDS011;25451;51.960;6.250;2023-03-19T00:21:32;1.98;;;1.00;;
39772;SDS011;25451;51.960;6.250;2023-03-19T00:23:58;2.83;;;1.20;;
39772;SDS011;25451;51.960;6.250;2023-03-19T00:26:30;2.03;;;0.98;;
39772;SDS011;25451;51.960;6.250;2023-03-19T00:28:57;1.27;;;0.70;;
39772;SDS011;25451;51.960;6.250;2023-03-19T00:31:23;1.77;;;1.05;;
39772;SDS011;25451;51.960;6.250;2023-03-19T00:33:49;1.75;;;0.98;;
39772;SDS011;25451;51.960;6.250;2023-03-19T00:36:16;2.42;;;1.10;;
39772;SDS011;25451;51.960;6.250;2023-03-19T00:38:42;2.10;;;1.00;;
39772;SDS011;25451;51.960;6.250;2023-03-19T00:41:08;3.15;;;1.20;;
39772;SDS011;25451;51.960;6.250;2023-03-19T00:43:34;2.50;;;1.20;;
39772;SDS011;25451;51.960;6.250;2023-03-19T00:45:59;3.23;;;1.30;;
39772;SDS011;25451;51.960;6.250;2023-03-19T00:48:25;1.73;;;1.00;;
39772;SDS011;25451;51.960;6.250;2023-03-19T00:50:51;5.87;;;1.17;;
39772;SDS011;25451;51.960;6.250;2023-03-19T00:53:16;1.83;;;1.20;;
39772;SDS011;25451;51.960;6.250;2023-03-19T00:55:41;1.83;;;1.05;;
39772;SDS011;25451;51.960;6.250;2023-03-19T00:58:07;2.77;;;1.10;;
39772;SDS011;25451;51.960;6.250;2023-03-19T01:00:34;2.33;;;1.00;;
39772;SDS011;25451;51.960;6.250;2023-03-19T01:03:00;2.63;;;1.00;;
39772;SDS011;25451;51.960;6.250;2023-03-19T01:05:26;3.72;;;1.15;;
39772;SDS011;25451;51.960;6.250;2023-03-19T01:07:51;3.03;;;1.27;;
39772;SDS011;25451;51.960;6.250;2023-03-19T01:10:17;3.30;;;1.00;;
39772;SDS011;25451;51.960;6.250;2023-03-19T01:12:46;2.20;;;1.30;;
39772;SDS011;25451;51.960;6.250;2023-03-19T01:15:13;2.10;;;1.00;;
39772;SDS011;25451;51.960;6.250;2023-03-19T01:17:38;2.40;;;1.20;;
39772;SDS011;25451;51.960;6.250;2023-03-19T01:20:04;3.08;;;1.20;;
39772;SDS011;25451;51.960;6.250;2023-03-19T01:22:36;2.20;;;1.10;;
39772;SDS011;25451;51.960;6.250;2023-03-19T01:25:08;1.77;;;1.10;;
39772;SDS011;25451;51.960;6.250;2023-03-19T01:27:36;2.38;;;1.10;;
39772;SDS011;25451;51.960;6.250;2023-03-19T01:30:02;4.82;;;1.20;;
39772;SDS011;25451;51.960;6.250;2023-03-19T01:32:27;3.03;;;1.40;;
39772;SDS011;25451;51.960;6.250;2023-03-19T01:34:52;3.00;;;1.20;;
39772;SDS011;25451;51.960;6.250;2023-03-19T01:37:18;2.57;;;1.30;;
39772;SDS011;25451;51.960;6.250;2023-03-19T01:39:44;2.75;;;1.35;;
39772;SDS011;25451;51.960;6.250;2023-03-19T01:42:10;2.75;;;1.27;;
39772;SDS011;25451;51.960;6.250;2023-03-19T01:44:37;2.30;;;1.23;;
39772;SDS011;25451;51.960;6.250;2023-03-19T01:47:13;2.65;;;1.40;;
39772;SDS011;25451;51.960;6.250;2023-03-19T01:49:42;2.70;;;1.35;;
39772;SDS011;25451;51.960;6.250;2023-03-19T01:52:11;3.90;;;1.60;;
39772;SDS011;25451;51.960;6.250;2023-03-19T01:54:39;2.63;;;1.40;;
39772;SDS011;25451;51.960;6.250;2023-03-19T01:57:06;3.17;;;1.60;;
39772;SDS011;25451;51.960;6.250;2023-03-19T01:59:36;4.88;;;1.77;;
39772;SDS011;25451;51.960;6.250;2023-03-19T02:02:15;3.05;;;1.60;;
39772;SDS011;25451;51.960;6.250;2023-03-19T02:04:46;2.45;;;1.50;;
39772;SDS011;25451;51.960;6.250;2023-03-19T02:07:16;3.10;;;1.50;;
39772;SDS011;25451;51.960;6.250;2023-03-19T02:09:42;3.47;;;1.70;;
39772;SDS011;25451;51.960;6.250;2023-03-19T02:12:08;4.13;;;1.70;;
39772;SDS011;25451;51.960;6.250;2023-03-19T02:14:33;3.15;;;1.60;;
39772;SDS011;25451;51.960;6.250;2023-03-19T02:16:59;4.45;;;1.98;;
39772;SDS011;25451;51.960;6.250;2023-03-19T02:19:37;3.27;;;1.70;;
39772;SDS011;25451;51.960;6.250;2023-03-19T02:22:20;3.25;;;1.58;;
39772;SDS011;25451;51.960;6.250;2023-03-19T02:24:49;3.15;;;1.70;;
39772;SDS011;25451;51.960;6.250;2023-03-19T02:27:19;3.83;;;1.83;;
39772;SDS011;25451;51.960;6.250;2023-03-19T02:29:45;5.05;;;1.90;;
39772;SDS011;25451;51.960;6.250;2023-03-19T02:32:10;3.13;;;1.70;;
39772;SDS011;25451;51.960;6.250;2023-03-19T02:34:40;4.07;;;1.90;;
39772;SDS011;25451;51.960;6.250;2023-03-19T02:37:18;3.47;;;1.80;;
39772;SDS011;25451;51.960;6.250;2023-03-19T02:39:51;3.30;;;1.80;;
39772;SDS011;25451;51.960;6.250;2023-03-19T02:42:28;3.80;;;1.73;;
39772;SDS011;25451;51.960;6.250;2023-03-19T02:44:54;3.13;;;1.60;;
39772;SDS011;25451;51.960;6.250;2023-03-19T02:47:20;4.30;;;1.65;;
39772;SDS011;25451;51.960;6.250;2023-03-19T02:49:47;4.10;;;1.80;;
39772;SDS011;25451;51.960;6.250;2023-03-19T02:52:12;3.47;;;1.87;;
39772;SDS011;25451;51.960;6.250;2023-03-19T02:54:38;3.17;;;1.70;;
39772;SDS011;25451;51.960;6.250;2023-03-19T02:57:03;2.63;;;1.60;;
39772;SDS011;25451;51.960;6.250;2023-03-19T02:59:29;3.20;;;1.80;;
39772;SDS011;25451;51.960;6.250;2023-03-19T03:01:55;4.75;;;1.60;;
39772;SDS011;25451;51.960;6.250;2023-03-19T03:04:20;3.40;;;1.80;;
39772;SDS011;25451;51.960;6.250;2023-03-19T03:06:45;3.30;;;1.73;;
39772;SDS011;25451;51.960;6.250;2023-03-19T03:09:11;2.85;;;1.63;;
39772;SDS011;25451;51.960;6.250;2023-03-19T03:11:37;6.40;;;2.10;;
39772;SDS011;25451;51.960;6.250;2023-03-19T03:14:02;3.30;;;1.80;;
39772;SDS011;25451;51.960;6.250;2023-03-19T03:16:28;4.45;;;1.90;;
39772;SDS011;25451;51.960;6.250;2023-03-19T03:18:53;4.40;;;2.20;;
39772;SDS011;25451;51.960;6.250;2023-03-19T03:21:19;4.57;;;2.20;;
39772;SDS011;25451;51.960;6.250;2023-03-19T03:23:45;4.55;;;2.13;;
39772;SDS011;25451;51.960;6.250;2023-03-19T03:26:12;4.95;;;2.35;;
39772;SDS011;25451;51.960;6.250;2023-03-19T03:28:37;4.43;;;2.20;;
39772;SDS011;25451;51.960;6.250;2023-03-19T03:31:03;4.37;;;2.10;;
39772;SDS011;25451;51.960;6.250;2023-03-19T03:33:28;4.55;;;2.47;;
39772;SDS011;25451;51.960;6.250;2023-03-19T03:35:53;4.53;;;2.30;;
39772;SDS011;25451;51.960;6.250;2023-03-19T03:38:19;4.18;;;2.38;;
39772;SDS011;25451;51.960;6.250;2023-03-19T03:40:48;6.30;;;2.90;;
39772;SDS011;25451;51.960;6.250;2023-03-19T03:43:14;4.47;;;2.13;;
39772;SDS011;25451;51.960;6.250;2023-03-19T03:45:40;3.33;;;2.00;;
39772;SDS011;25451;51.960;6.250;2023-03-19T03:48:07;4.68;;;2.30;;
39772;SDS011;25451;51.960;6.250;2023-03-19T03:50:32;5.00;;;2.40;;
39772;SDS011;25451;51.960;6.250;2023-03-19T03:52:58;5.23;;;2.50;;
39772;SDS011;25451;51.960;6.250;2023-03-19T03:55:23;5.40;;;2.23;;
39772;SDS011;25451;51.960;6.250;2023-03-19T03:57:48;5.63;;;2.33;;
39772;SDS011;25451;51.960;6.250;2023-03-19T04:00:14;4.57;;;2.40;;
39772;SDS011;25451;51.960;6.250;2023-03-19T04:02:39;5.10;;;2.37;;
39772;SDS011;25451;51.960;6.250;2023-03-19T04:05:05;4.43;;;2.42;;
39772;SDS011;25451;51.960;6.250;2023-03-19T04:07:31;7.35;;;2.50;;
39772;SDS011;25451;51.960;6.250;2023-03-19T04:09:57;4.23;;;2.60;;
39772;SDS011;25451;51.960;6.250;2023-03-19T04:12:23;4.22;;;2.50;;
39772;SDS011;25451;51.960;6.250;2023-03-19T04:14:48;4.35;;;2.60;;
39772;SDS011;25451;51.960;6.250;2023-03-19T04:17:14;4.83;;;2.40;;
39772;SDS011;25451;51.960;6.250;2023-03-19T04:19:39;4.47;;;2.63;;
39772;SDS011;25451;51.960;6.250;2023-03-19T04:22:04;5.47;;;2.43;;
39772;SDS011;25451;51.960;6.250;2023-03-19T04:24:32;4.78;;;2.58;;
39772;SDS011;25451;51.960;6.250;2023-03-19T04:26:57;6.63;;;2.70;;
39772;SDS011;25451;51.960;6.250;2023-03-19T04:29:23;4.82;;;2.65;;
39772;SDS011;25451;51.960;6.250;2023-03-19T04:31:48;5.28;;;2.40;;
39772;SDS011;25451;51.960;6.250;2023-03-19T04:34:14;4.47;;;2.60;;
39772;SDS011;25451;51.960;6.250;2023-03-19T04:36:39;6.18;;;2.50;;
39772;SDS011;25451;51.960;6.250;2023-03-19T04:39:05;4.97;;;2.47;;
39772;SDS011;25451;51.960;6.250;2023-03-19T04:41:30;5.13;;;2.50;;
39772;SDS011;25451;51.960;6.250;2023-03-19T04:43:56;4.57;;;2.47;;
39772;SDS011;25451;51.960;6.250;2023-03-19T04:46:21;5.05;;;2.45;;
39772;SDS011;25451;51.960;6.250;2023-03-19T04:48:47;5.17;;;2.50;;
39772;SDS011;25451;51.960;6.250;2023-03-19T04:51:12;7.17;;;2.63;;
39772;SDS011;25451;51.960;6.250;2023-03-19T04:53:37;6.37;;;2.60;;
39772;SDS011;25451;51.960;6.250;2023-03-19T04:56:04;5.40;;;2.53;;
39772;SDS011;25451;51.960;6.250;2023-03-19T04:58:30;5.03;;;2.92;;
39772;SDS011;25451;51.960;6.250;2023-03-19T05:00:56;5.57;;;2.63;;
39772;SDS011;25451;51.960;6.250;2023-03-19T05:03:21;5.43;;;2.83;;
39772;SDS011;25451;51.960;6.250;2023-03-19T05:05:46;6.33;;;3.40;;
39772;SDS011;25451;51.960;6.250;2023-03-19T05:08:12;5.17;;;3.03;;
39772;SDS011;25451;51.960;6.250;2023-03-19T05:10:38;7.53;;;3.13;;
39772;SDS011;25451;51.960;6.250;2023-03-19T05:13:03;5.35;;;3.17;;
39772;SDS011;25451;51.960;6.250;2023-03-19T05:15:30;4.85;;;3.28;;
39772;SDS011;25451;51.960;6.250;2023-03-19T05:17:56;6.67;;;3.33;;
39772;SDS011;25451;51.960;6.250;2023-03-19T05:20:21;6.50;;;3.70;;
39772;SDS011;25451;51.960;6.250;2023-03-19T05:22:47;5.60;;;3.47;;
39772;SDS011;25451;51.960;6.250;2023-03-19T05:25:13;7.20;;;3.80;;
39772;SDS011;25451;51.960;6.250;2023-03-19T05:27:38;6.15;;;3.47;;
39772;SDS011;25451;51.960;6.250;2023-03-19T05:30:05;6.60;;;3.80;;
39772;SDS011;25451;51.960;6.250;2023-03-19T05:32:31;6.35;;;3.83;;
39772;SDS011;25451;51.960;6.250;2023-03-19T05:34:57;7.85;;;3.95;;
39772;SDS011;25451;51.960;6.250;2023-03-19T05:37:22;7.67;;;3.43;;
39772;SDS011;25451;51.960;6.250;2023-03-19T05:39:49;5.88;;;3.40;;
39772;SDS011;25451;51.960;6.250;2023-03-19T05:42:17;7.13;;;3.60;;
39772;SDS011;25451;51.960;6.250;2023-03-19T05:44:42;6.97;;;3.73;;
39772;SDS011;25451;51.960;6.250;2023-03-19T05:47:09;6.43;;;3.63;;
39772;SDS011;25451;51.960;6.250;2023-03-19T05:49:35;5.70;;;3.55;;
39772;SDS011;25451;51.960;6.250;2023-03-19T05:52:01;6.33;;;3.80;;
39772;SDS011;25451;51.960;6.250;2023-03-19T05:54:26;6.43;;;3.60;;
39772;SDS011;25451;51.960;6.250;2023-03-19T05:56:51;7.23;;;3.70;;
39772;SDS011;25451;51.960;6.250;2023-03-19T05:59:17;6.17;;;3.37;;
39772;SDS011;25451;51.960;6.250;2023-03-19T06:01:42;6.32;;;3.50;;
39772;SDS011;25451;51.960;6.250;2023-03-19T06:04:08;8.33;;;3.50;;
39772;SDS011;25451;51.960;6.250;2023-03-19T06:06:33;7.07;;;3.50;;
39772;SDS011;25451;51.960;6.250;2023-03-19T06:08:58;5.57;;;3.60;;
39772;SDS011;25451;51.960;6.250;2023-03-19T06:11:24;6.20;;;3.80;;
39772;SDS011;25451;51.960;6.250;2023-03-19T06:13:49;6.50;;;4.20;;
39772;SDS011;25451;51.960;6.250;2023-03-19T06:16:15;7.22;;;3.67;;
39772;SDS011;25451;51.960;6.250;2023-03-19T06:18:41;6.30;;;3.70;;
39772;SDS011;25451;51.960;6.250;2023-03-19T06:21:06;7.53;;;3.77;;
39772;SDS011;25451;51.960;6.250;2023-03-19T06:23:31;6.73;;;3.60;;
39772;SDS011;25451;51.960;6.250;2023-03-19T06:25:57;6.47;;;3.57;;
39772;SDS011;25451;51.960;6.250;2023-03-19T06:28:22;9.47;;;4.07;;
39772;SDS011;25451;51.960;6.250;2023-03-19T06:30:47;6.47;;;4.03;;
39772;SDS011;25451;51.960;6.250;2023-03-19T06:33:13;6.57;;;3.60;;
39772;SDS011;25451;51.960;6.250;2023-03-19T06:35:38;6.20;;;3.70;;
39772;SDS011;25451;51.960;6.250;2023-03-19T06:38:04;7.60;;;3.97;;
39772;SDS011;25451;51.960;6.250;2023-03-19T06:40:31;7.95;;;4.20;;
39772;SDS011;25451;51.960;6.250;2023-03-19T06:42:57;8.70;;;3.90;;
39772;SDS011;25451;51.960;6.250;2023-03-19T06:45:22;7.75;;;4.25;;
39772;SDS011;25451;51.960;6.250;2023-03-19T06:47:47;6.18;;;3.85;;
39772;SDS011;25451;51.960;6.250;2023-03-19T06:50:13;7.20;;;3.87;;
39772;SDS011;25451;51.960;6.250;2023-03-19T06:52:40;7.55;;;3.65;;
39772;SDS011;25451;51.960;6.250;2023-03-19T06:55:06;9.40;;;3.93;;
39772;SDS011;25451;51.960;6.250;2023-03-19T06:57:32;7.13;;;4.22;;
39772;SDS011;25451;51.960;6.250;2023-03-19T06:59:58;6.40;;;4.00;;
39772;SDS011;25451;51.960;6.250;2023-03-19T07:02:23;5.93;;;3.70;;
39772;SDS011;25451;51.960;6.250;2023-03-19T07:04:50;7.55;;;3.85;;
39772;SDS011;25451;51.960;6.250;2023-03-19T07:07:16;8.88;;;4.30;;
39772;SDS011;25451;51.960;6.250;2023-03-19T07:09:41;7.35;;;3.92;;
39772;SDS011;25451;51.960;6.250;2023-03-19T07:12:07;6.27;;;3.80;;
39772;SDS011;25451;51.960;6.250;2023-03-19T07:14:32;7.67;;;4.20;;
39772;SDS011;25451;51.960;6.250;2023-03-19T07:16:58;8.33;;;4.23;;
39772;SDS011;25451;51.960;6.250;2023-03-19T07:19:23;6.27;;;3.80;;
39772;SDS011;25451;51.960;6.250;2023-03-19T07:21:48;6.93;;;3.88;;
39772;SDS011;25451;51.960;6.250;2023-03-19T07:24:13;9.05;;;4.20;;
39772;SDS011;25451;51.960;6.250;2023-03-19T07:26:39;7.37;;;4.20;;
39772;SDS011;25451;51.960;6.250;2023-03-19T07:29:04;6.80;;;4.20;;
39772;SDS011;25451;51.960;6.250;2023-03-19T07:31:30;7.80;;;4.10;;
39772;SDS011;25451;51.960;6.250;2023-03-19T07:33:55;7.97;;;4.20;;
39772;SDS011;25451;51.960;6.250;2023-03-19T07:36:20;9.43;;;4.13;;
39772;SDS011;25451;51.960;6.250;2023-03-19T07:38:46;7.57;;;4.30;;
39772;SDS011;25451;51.960;6.250;2023-03-19T07:41:11;6.97;;;4.17;;
39772;SDS011;25451;51.960;6.250;2023-03-19T07:43:37;8.57;;;3.80;;
39772;SDS011;25451;51.960;6.250;2023-03-19T07:46:02;7.70;;;4.27;;
39772;SDS011;25451;51.960;6.250;2023-03-19T07:48:28;7.88;;;4.18;;
39772;SDS011;25451;51.960;6.250;2023-03-19T07:50:53;7.20;;;4.23;;
39772;SDS011;25451;51.960;6.250;2023-03-19T07:53:18;7.10;;;4.07;;
39772;SDS011;25451;51.960;6.250;2023-03-19T07:55:44;6.97;;;4.07;;
39772;SDS011;25451;51.960;6.250;2023-03-19T07:58:10;8.18;;;4.18;;
39772;SDS011;25451;51.960;6.250;2023-03-19T08:00:36;7.10;;;4.30;;
39772;SDS011;25451;51.960;6.250;2023-03-19T08:03:01;7.47;;;4.40;;
39772;SDS011;25451;51.960;6.250;2023-03-19T08:05:26;6.63;;;4.00;;
39772;SDS011;25451;51.960;6.250;2023-03-19T08:07:52;8.40;;;4.18;;
39772;SDS011;25451;51.960;6.250;2023-03-19T08:10:17;7.73;;;4.33;;
39772;SDS011;25451;51.960;6.250;2023-03-19T08:12:43;7.10;;;4.07;;
39772;SDS011;25451;51.960;6.250;2023-03-19T08:15:09;8.73;;;4.30;;
39772;SDS011;25451;51.960;6.250;2023-03-19T08:17:35;7.90;;;4.03;;
39772;SDS011;25451;51.960;6.250;2023-03-19T08:20:05;6.95;;;4.10;;
39772;SDS011;25451;51.960;6.250;2023-03-19T08:22:36;8.57;;;4.22;;
39772;SDS011;25451;51.960;6.250;2023-03-19T08:25:02;8.73;;;4.60;;
39772;SDS011;25451;51.960;6.250;2023-03-19T08:27:29;8.63;;;4.43;;
39772;SDS011;25451;51.960;6.250;2023-03-19T08:29:55;7.95;;;4.38;;
39772;SDS011;25451;51.960;6.250;2023-03-19T08:32:21;7.68;;;4.20;;
39772;SDS011;25451;51.960;6.250;2023-03-19T08:34:47;8.70;;;4.10;;
39772;SDS011;25451;51.960;6.250;2023-03-19T08:37:12;6.53;;;3.97;;
39772;SDS011;25451;51.960;6.250;2023-03-19T08:39:38;8.70;;;3.77;;
39772;SDS011;25451;51.960;6.250;2023-03-19T08:42:03;7.45;;;4.20;;
39772;SDS011;25451;51.960;6.250;2023-03-19T08:44:29;9.10;;;4.73;;
39772;SDS011;25451;51.960;6.250;2023-03-19T08:46:54;11.70;;;4.80;;
39772;SDS011;25451;51.960;6.250;2023-03-19T08:49:19;10.77;;;4.40;;
39772;SDS011;25451;51.960;6.250;2023-03-19T08:51:44;7.67;;;4.50;;
39772;SDS011;25451;51.960;6.250;2023-03-19T08:54:10;8.40;;;4.90;;
39772;SDS011;25451;51.960;6.250;2023-03-19T08:56:37;8.48;;;3.95;;
39772;SDS011;25451;51.960;6.250;2023-03-19T08:59:02;9.07;;;4.30;;
39772;SDS011;25451;51.960;6.250;2023-03-19T09:01:28;7.35;;;3.55;;
39772;SDS011;25451;51.960;6.250;2023-03-19T09:03:53;6.97;;;4.03;;
39772;SDS011;25451;51.960;6.250;2023-03-19T09:06:18;7.97;;;4.30;;
39772;SDS011;25451;51.960;6.250;2023-03-19T09:08:44;6.33;;;4.10;;
39772;SDS011;25451;51.960;6.250;2023-03-19T09:11:10;7.07;;;4.15;;
39772;SDS011;25451;51.960;6.250;2023-03-19T09:13:35;6.87;;;4.07;;
39772;SDS011;25451;51.960;6.250;2023-03-19T09:16:02;9.95;;;3.80;;
39772;SDS011;25451;51.960;6.250;2023-03-19T09:18:27;8.20;;;4.17;;
39772;SDS011;25451;51.960;6.250;2023-03-19T09:20:53;7.63;;;3.90;;
39772;SDS011;25451;51.960;6.250;2023-03-19T09:23:19;8.13;;;3.95;;
39772;SDS011;25451;51.960;6.250;2023-03-19T09:25:45;7.40;;;3.90;;
39772;SDS011;25451;51.960;6.250;2023-03-19T09:28:10;6.47;;;4.30;;
39772;SDS011;25451;51.960;6.250;2023-03-19T09:30:36;7.03;;;4.57;;
39772;SDS011;25451;51.960;6.250;2023-03-19T09:33:03;6.95;;;4.45;;
39772;SDS011;25451;51.960;6.250;2023-03-19T09:35:29;7.38;;;4.57;;
39772;SDS011;25451;51.960;6.250;2023-03-19T09:37:58;6.95;;;4.10;;
39772;SDS011;25451;51.960;6.250;2023-03-19T09:40:25;7.68;;;4.32;;
39772;SDS011;25451;51.960;6.250;2023-03-19T09:45:40;6.95;;;3.97;;
39772;SDS011;25451;51.960;6.250;2023-03-19T09:48:06;6.55;;;3.92;;
39772;SDS011;25451;51.960;6.250;2023-03-19T09:50:40;6.32;;;3.13;;
39772;SDS011;25451;51.960;6.250;2023-03-19T09:53:17;6.80;;;3.00;;
39772;SDS011;25451;51.960;6.250;2023-03-19T09:55:54;5.80;;;3.00;;
39772;SDS011;25451;51.960;6.250;2023-03-19T09:58:32;5.50;;;2.80;;
39772;SDS011;25451;51.960;6.250;2023-03-19T10:00:59;4.82;;;2.70;;
39772;SDS011;25451;51.960;6.250;2023-03-19T10:17:16;5.47;;;2.90;;
39772;SDS011;25451;51.960;6.250;2023-03-19T10:19:50;5.63;;;3.22;;
39772;SDS011;25451;51.960;6.250;2023-03-19T10:22:29;5.67;;;3.00;;
39772;SDS011;25451;51.960;6.250;2023-03-19T10:25:02;6.65;;;3.25;;
39772;SDS011;25451;51.960;6.250;2023-03-19T10:27:29;7.80;;;3.55;;
39772;SDS011;25451;51.960;6.250;2023-03-19T10:29:55;5.50;;;3.30;;
39772;SDS011;25451;51.960;6.250;2023-03-19T10:35:30;6.45;;;3.47;;
39772;SDS011;25451;51.960;6.250;2023-03-19T10:38:19;6.20;;;3.58;;
39772;SDS011;25451;51.960;6.250;2023-03-19T10:43:39;8.10;;;3.38;;
39772;SDS011;25451;51.960;6.250;2023-03-19T10:46:05;7.05;;;3.60;;
39772;SDS011;25451;51.960;6.250;2023-03-19T10:48:37;5.45;;;3.17;;
39772;SDS011;25451;51.960;6.250;2023-03-19T10:51:09;5.90;;;3.13;;
39772;SDS011;25451;51.960;6.250;2023-03-19T10:53:39;5.80;;;3.20;;
39772;SDS011;25451;51.960;6.250;2023-03-19T10:56:06;6.20;;;3.40;;
39772;SDS011;25451;51.960;6.250;2023-03-19T10:58:35;8.30;;;3.30;;
39772;SDS011;25451;51.960;6.250;2023-03-19T11:01:05;9.18;;;3.30;;
39772;SDS011;25451;51.960;6.250;2023-03-19T11:06:04;5.90;;;3.10;;
39772;SDS011;25451;51.960;6.250;2023-03-19T11:08:42;7.43;;;3.08;;
39772;SDS011;25451;51.960;6.250;2023-03-19T11:11:30;6.68;;;3.28;;
39772;SDS011;25451;51.960;6.250;2023-03-19T11:14:04;4.17;;;2.30;;
39772;SDS011;25451;51.960;6.250;2023-03-19T11:16:45;5.80;;;2.60;;
39772;SDS011;25451;51.960;6.250;2023-03-19T11:19:19;4.10;;;2.20;;
39772;SDS011;25451;51.960;6.250;2023-03-19T11:24:32;7.13;;;2.40;;
39772;SDS011;25451;51.960;6.250;2023-03-19T11:26:58;5.40;;;2.50;;
39772;SDS011;25451;51.960;6.250;2023-03-19T11:29:25;5.10;;;2.60;;
39772;SDS011;25451;51.960;6.250;2023-03-19T11:32:02;4.57;;;2.35;;
39772;SDS011;25451;51.960;6.250;2023-03-19T11:42:59;9.63;;;2.67;;
39772;SDS011;25451;51.960;6.250;2023-03-19T11:45:34;6.55;;;2.20;;
39772;SDS011;25451;51.960;6.250;2023-03-19T11:54:04;5.20;;;2.70;;
39772;SDS011;25451;51.960;6.250;2023-03-19T11:56:42;6.93;;;2.53;;
39772;SDS011;25451;51.960;6.250;2023-03-19T12:05:12;5.40;;;3.00;;
39772;SDS011;25451;51.960;6.250;2023-03-19T12:07:43;7.27;;;2.90;;
39772;SDS011;25451;51.960;6.250;2023-03-19T12:13:06;6.30;;;3.22;;
39772;SDS011;25451;51.960;6.250;2023-03-19T12:15:53;5.20;;;3.05;;
39772;SDS011;25451;51.960;6.250;2023-03-19T12:24:02;6.38;;;3.17;;
39772;SDS011;25451;51.960;6.250;2023-03-19T12:32:51;6.32;;;2.72;;
39772;SDS011;25451;51.960;6.250;2023-03-19T12:35:33;7.65;;;2.70;;
39772;SDS011;25451;51.960;6.250;2023-03-19T12:38:16;5.70;;;2.80;;
39772;SDS011;25451;51.960;6.250;2023-03-19T12:41:04;6.35;;;2.80;;
39772;SDS011;25451;51.960;6.250;2023-03-19T12:46:08;5.95;;;2.65;;
39772;SDS011;25451;51.960;6.250;2023-03-19T12:51:11;5.55;;;2.63;;
39772;SDS011;25451;51.960;6.250;2023-03-19T12:56:33;8.10;;;2.90;;
39772;SDS011;25451;51.960;6.250;2023-03-19T13:01:57;6.22;;;2.80;;
39772;SDS011;25451;51.960;6.250;2023-03-19T13:04:32;6.15;;;3.00;;
39772;SDS011;25451;51.960;6.250;2023-03-19T13:07:17;8.35;;;3.30;;
39772;SDS011;25451;51.960;6.250;2023-03-19T13:10:06;5.63;;;3.20;;
39772;SDS011;25451;51.960;6.250;2023-03-19T13:12:43;7.15;;;3.15;;
39772;SDS011;25451;51.960;6.250;2023-03-19T13:17:53;10.70;;;5.10;;
39772;SDS011;25451;51.960;6.250;2023-03-19T13:23:43;16.40;;;8.05;;
39772;SDS011;25451;51.960;6.250;2023-03-19T13:26:12;19.48;;;8.65;;
39772;SDS011;25451;51.960;6.250;2023-03-19T13:29:00;17.85;;;8.32;;
39772;SDS011;25451;51.960;6.250;2023-03-19T13:31:26;17.42;;;8.68;;
39772;SDS011;25451;51.960;6.250;2023-03-19T13:34:00;19.52;;;9.65;;
39772;SDS011;25451;51.960;6.250;2023-03-19T13:36:27;14.85;;;8.80;;
39772;SDS011;25451;51.960;6.250;2023-03-19T13:38:55;18.88;;;8.85;;
39772;SDS011;25451;51.960;6.250;2023-03-19T13:46:44;19.15;;;9.10;;
39772;SDS011;25451;51.960;6.250;2023-03-19T13:51:52;17.23;;;8.65;;
39772;SDS011;25451;51.960;6.250;2023-03-19T13:54:19;20.35;;;8.15;;
39772;SDS011;25451;51.960;6.250;2023-03-19T13:56:55;16.80;;;8.63;;
39772;SDS011;25451;51.960;6.250;2023-03-19T13:59:30;16.25;;;8.80;;
39772;SDS011;25451;51.960;6.250;2023-03-19T14:01:57;13.93;;;7.63;;
39772;SDS011;25451;51.960;6.250;2023-03-19T14:04:30;17.23;;;8.07;;
39772;SDS011;25451;51.960;6.250;2023-03-19T14:19:50;12.77;;;6.00;;
39772;SDS011;25451;51.960;6.250;2023-03-19T14:22:34;17.38;;;6.80;;
39772;SDS011;25451;51.960;6.250;2023-03-19T14:25:17;15.02;;;6.40;;
39772;SDS011;25451;51.960;6.250;2023-03-19T14:27:46;9.65;;;5.20;;
39772;SDS011;25451;51.960;6.250;2023-03-19T14:32:42;9.50;;;4.35;;
39772;SDS011;25451;51.960;6.250;2023-03-19T14:35:13;9.75;;;4.10;;
39772;SDS011;25451;51.960;6.250;2023-03-19T14:37:43;11.75;;;4.38;;
39772;SDS011;25451;51.960;6.250;2023-03-19T14:40:25;10.20;;;4.82;;
39772;SDS011;25451;51.960;6.250;2023-03-19T14:43:31;10.35;;;4.10;;
39772;SDS011;25451;51.960;6.250;2023-03-19T14:45:59;11.73;;;4.30;;
39772;SDS011;25451;51.960;6.250;2023-03-19T14:51:32;7.53;;;3.50;;
39772;SDS011;25451;51.960;6.250;2023-03-19T14:54:14;7.88;;;3.50;;
39772;SDS011;25451;51.960;6.250;2023-03-19T14:56:47;7.38;;;3.47;;
39772;SDS011;25451;51.960;6.250;2023-03-19T14:59:12;10.55;;;4.07;;
39772;SDS011;25451;51.960;6.250;2023-03-19T15:01:40;11.43;;;3.72;;
39772;SDS011;25451;51.960;6.250;2023-03-19T15:04:11;11.05;;;4.20;;
39772;SDS011;25451;51.960;6.250;2023-03-19T15:06:40;9.30;;;4.00;;
39772;SDS011;25451;51.960;6.250;2023-03-19T15:19:45;8.07;;;3.47;;
39772;SDS011;25451;51.960;6.250;2023-03-19T15:22:12;7.97;;;3.75;;
39772;SDS011;25451;51.960;6.250;2023-03-19T15:24:50;7.03;;;3.37;;
39772;SDS011;25451;51.960;6.250;2023-03-19T15:27:21;7.38;;;3.42;;
39772;SDS011;25451;51.960;6.250;2023-03-19T15:29:48;9.13;;;3.70;;
39772;SDS011;25451;51.960;6.250;2023-03-19T15:34:57;8.18;;;3.67;;
39772;SDS011;25451;51.960;6.250;2023-03-19T15:37:23;12.33;;;4.10;;
39772;SDS011;25451;51.960;6.250;2023-03-19T15:39:50;9.07;;;3.60;;
39772;SDS011;25451;51.960;6.250;2023-03-19T15:42:19;7.22;;;3.50;;
39772;SDS011;25451;51.960;6.250;2023-03-19T15:44:47;7.05;;;3.08;;
39772;SDS011;25451;51.960;6.250;2023-03-19T15:47:19;10.32;;;2.80;;
39772;SDS011;25451;51.960;6.250;2023-03-19T15:49:51;9.00;;;3.30;;
39772;SDS011;25451;51.960;6.250;2023-03-19T15:52:45;6.60;;;2.78;;
39772;SDS011;25451;51.960;6.250;2023-03-19T15:55:14;6.07;;;2.80;;
39772;SDS011;25451;51.960;6.250;2023-03-19T15:57:41;6.53;;;2.65;;
39772;SDS011;25451;51.960;6.250;2023-03-19T16:00:07;10.98;;;3.55;;
39772;SDS011;25451;51.960;6.250;2023-03-19T16:02:35;6.63;;;3.10;;
39772;SDS011;25451;51.960;6.250;2023-03-19T16:05:03;7.07;;;3.25;;
39772;SDS011;25451;51.960;6.250;2023-03-19T16:09:54;6.67;;;3.30;;
39772;SDS011;25451;51.960;6.250;2023-03-19T16:12:54;9.37;;;3.70;;
39772;SDS011;25451;51.960;6.250;2023-03-19T16:20:43;10.23;;;4.47;;
39772;SDS011;25451;51.960;6.250;2023-03-19T16:23:16;10.93;;;4.18;;
39772;SDS011;25451;51.960;6.250;2023-03-19T16:25:42;8.82;;;4.60;;
39772;SDS011;25451;51.960;6.250;2023-03-19T16:28:16;10.95;;;5.07;;
39772;SDS011;25451;51.960;6.250;2023-03-19T16:30:44;13.32;;;5.45;;
39772;SDS011;25451;51.960;6.250;2023-03-19T16:33:11;15.00;;;5.63;;
39772;SDS011;25451;51.960;6.250;2023-03-19T16:35:38;11.55;;;5.60;;
39772;SDS011;25451;51.960;6.250;2023-03-19T16:38:16;13.10;;;5.50;;
39772;SDS011;25451;51.960;6.250;2023-03-19T16:40:47;12.98;;;5.47;;
39772;SDS011;25451;51.960;6.250;2023-03-19T16:43:14;11.77;;;5.75;;
39772;SDS011;25451;51.960;6.250;2023-03-19T16:45:42;11.23;;;5.75;;
39772;SDS011;25451;51.960;6.250;2023-03-19T16:48:08;12.27;;;5.93;;
39772;SDS011;25451;51.960;6.250;2023-03-19T16:50:35;12.57;;;5.77;;
39772;SDS011;25451;51.960;6.250;2023-03-19T16:53:02;11.23;;;5.28;;
39772;SDS011;25451;51.960;6.250;2023-03-19T16:55:30;15.98;;;5.65;;
39772;SDS011;25451;51.960;6.250;2023-03-19T16:57:58;12.88;;;5.25;;
39772;SDS011;25451;51.960;6.250;2023-03-19T17:00:45;11.60;;;4.90;;